createdAt,value
2023-03-22T00:02:04.300Z,83.57
2023-03-22T00:04:36.333Z,84.31
2023-03-22T00:07:08.116Z,84.57
2023-03-22T00:09:39.953Z,83.73
2023-03-22T00:12:13.295Z,83.86
2023-03-22T00:14:46.766Z,84.05
2023-03-22T00:17:18.371Z,84.97
2023-03-22T00:19:50.354Z,85.08
2023-03-22T00:22:22.084Z,85.03
2023-03-22T00:24:53.953Z,84.99
2023-03-22T00:27:25.945Z,85.04
2023-03-22T00:29:59.224Z,84.53
2023-03-22T00:32:31.127Z,84.80
2023-03-22T00:35:03.624Z,84.68
2023-03-22T00:37:38.467Z,84.65
2023-03-22T00:40:13.840Z,84.31
2023-03-22T00:42:46.131Z,84.08
2023-03-22T00:45:19.120Z,83.88
2023-03-22T00:47:51.050Z,83.88
2023-03-22T00:50:22.683Z,83.74
2023-03-22T00:52:54.532Z,83.87
2023-03-22T00:55:26.387Z,83.56
2023-03-22T00:57:58.227Z,83.48
2023-03-22T01:00:32.156Z,83.49
2023-03-22T01:03:04.981Z,83.46
2023-03-22T01:05:37.719Z,83.82
2023-03-22T01:08:12.823Z,83.16
2023-03-22T01:10:46.006Z,84.05
2023-03-22T01:13:18.307Z,83.54
2023-03-22T01:15:53.247Z,83.94
2023-03-22T01:18:26.066Z,83.88
2023-03-22T01:20:57.891Z,83.66
2023-03-22T01:23:29.876Z,83.87
2023-03-22T01:26:01.894Z,84.00
2023-03-22T01:28:34.739Z,84.08
2023-03-22T01:31:08.337Z,84.01
2023-03-22T01:33:40.033Z,83.76
2023-03-22T01:36:14.249Z,84.16
2023-03-22T01:38:46.067Z,84.28
2023-03-22T01:41:18.542Z,84.03
2023-03-22T01:44:13.281Z,84.00
2023-03-22T01:46:46.422Z,84.19
2023-03-22T01:49:24.118Z,84.21
2023-03-22T01:52:00.240Z,84.38
2023-03-22T01:54:40.296Z,84.11
2023-03-22T01:57:12.347Z,84.16
2023-03-22T01:59:47.345Z,84.30
2023-03-22T02:02:19.954Z,84.73
2023-03-22T02:04:57.912Z,84.56
2023-03-22T02:07:31.681Z,84.48
2023-03-22T02:10:04.258Z,84.50
2023-03-22T02:12:50.818Z,84.37
2023-03-22T02:15:29.003Z,85.00
2023-03-22T02:18:22.522Z,85.05
2023-03-22T02:21:35.392Z,85.14
2023-03-22T02:24:46.253Z,84.82
2023-03-22T02:27:46.010Z,84.71
2023-03-22T02:31:03.230Z,84.50
2023-03-22T02:34:16.314Z,85.07
2023-03-22T02:37:42.204Z,84.66
2023-03-22T02:40:26.066Z,84.87
2023-03-22T02:43:10.320Z,85.12
2023-03-22T02:45:53.331Z,85.04
2023-03-22T02:48:33.467Z,84.89
2023-03-22T02:51:10.961Z,85.17
2023-03-22T02:53:53.163Z,85.60
2023-03-22T02:56:32.679Z,85.31
2023-03-22T02:59:07.858Z,85.13
2023-03-22T03:01:45.067Z,85.40
2023-03-22T03:04:26.046Z,85.30
2023-03-22T03:07:03.802Z,85.48
2023-03-22T03:09:37.662Z,85.70
2023-03-22T03:12:19.912Z,85.86
2023-03-22T03:14:52.038Z,85.47
2023-03-22T03:17:39.432Z,85.96
2023-03-22T03:20:24.484Z,85.93
2023-03-22T03:23:13.783Z,85.83
2023-03-22T03:25:53.555Z,85.79
2023-03-22T03:28:39.107Z,86.13
2023-03-22T03:31:25.724Z,86.15
2023-03-22T03:34:06.512Z,86.15
2023-03-22T03:36:45.247Z,86.22
2023-03-22T03:39:19.649Z,85.89
2023-03-22T03:41:56.093Z,85.69
2023-03-22T03:44:31.560Z,86.14
2023-03-22T03:47:05.750Z,85.85
2023-03-22T03:49:37.744Z,85.84
2023-03-22T03:52:09.947Z,85.99
2023-03-22T03:54:42.724Z,86.18
2023-03-22T03:57:16.545Z,85.40
2023-03-22T03:59:50.156Z,85.58
2023-03-22T04:02:21.826Z,86.06
2023-03-22T04:04:53.685Z,85.98
2023-03-22T04:07:25.582Z,85.53
2023-03-22T04:09:57.458Z,85.20
2023-03-22T04:12:29.267Z,85.24
2023-03-22T04:15:02.471Z,85.61
2023-03-22T04:17:34.329Z,85.50
2023-03-22T04:20:06.945Z,85.36
2023-03-22T04:22:39.301Z,85.79
2023-03-22T04:25:18.092Z,85.25
2023-03-22T04:27:51.433Z,85.88
2023-03-22T04:30:24.687Z,85.43
2023-03-22T04:32:56.303Z,85.35
2023-03-22T04:35:28.352Z,85.99
2023-03-22T04:38:01.106Z,85.92
2023-03-22T04:40:36.449Z,85.98
2023-03-22T04:43:09.911Z,85.99
2023-03-22T04:45:43.920Z,86.27
2023-03-22T04:48:15.513Z,85.94
2023-03-22T04:50:47.404Z,86.35
2023-03-22T04:53:19.174Z,86.18
2023-03-22T04:55:50.982Z,85.92
2023-03-22T04:58:22.941Z,86.03
2023-03-22T05:00:58.431Z,86.15
2023-03-22T05:03:30.307Z,85.93
2023-03-22T05:06:06.488Z,86.57
2023-03-22T05:08:38.423Z,85.94
2023-03-22T05:11:15.155Z,85.30
2023-03-22T05:13:47.062Z,85.11
2023-03-22T05:16:20.675Z,85.28
2023-03-22T05:18:54.364Z,85.47
2023-03-22T05:21:28.976Z,85.30
2023-03-22T05:24:01.645Z,85.77
2023-03-22T05:26:33.506Z,85.49
2023-03-22T05:29:07.336Z,85.28
2023-03-22T05:31:40.416Z,85.29
2023-03-22T05:34:13.167Z,85.06
2023-03-22T05:36:44.925Z,84.75
2023-03-22T05:39:16.841Z,84.67
2023-03-22T05:41:48.729Z,84.58
2023-03-22T05:44:20.592Z,83.80
2023-03-22T05:46:53.827Z,84.23
2023-03-22T05:49:26.805Z,84.58
2023-03-22T05:51:58.832Z,84.77
2023-03-22T05:54:31.169Z,83.84
2023-03-22T05:57:03.017Z,84.34
2023-03-22T05:59:35.578Z,84.41
2023-03-22T06:02:08.900Z,84.60
2023-03-22T06:04:41.597Z,84.28
2023-03-22T06:07:13.523Z,84.51
2023-03-22T06:09:45.986Z,84.84
2023-03-22T06:12:18.560Z,84.62
2023-03-22T06:14:50.345Z,85.13
2023-03-22T06:17:23.902Z,85.04
2023-03-22T06:19:55.821Z,85.43
2023-03-22T06:22:30.392Z,85.56
2023-03-22T06:25:02.530Z,85.46
2023-03-22T06:27:34.356Z,85.08
2023-03-22T06:30:06.730Z,85.76
2023-03-22T06:32:40.731Z,85.37
2023-03-22T06:35:13.746Z,85.39
2023-03-22T06:37:45.651Z,85.52
2023-03-22T06:40:17.906Z,85.63
2023-03-22T06:42:49.742Z,85.68
2023-03-22T06:45:21.533Z,85.87
2023-03-22T06:47:54.716Z,86.36
2023-03-22T06:50:26.522Z,85.83
2023-03-22T06:52:58.422Z,86.13
2023-03-22T06:55:33.208Z,86.34
2023-03-22T06:58:05.876Z,86.25
2023-03-22T07:00:38.781Z,85.99
2023-03-22T07:03:12.296Z,86.06
2023-03-22T07:05:44.150Z,86.37
2023-03-22T07:08:16.656Z,86.45
2023-03-22T07:10:52.201Z,86.63
2023-03-22T07:13:24.035Z,86.23
2023-03-22T07:16:02.175Z,86.55
2023-03-22T07:18:35.796Z,84.60
2023-03-22T07:21:07.486Z,83.67
2023-03-22T07:23:39.390Z,83.65
2023-03-22T07:26:13.279Z,83.83
2023-03-22T07:28:46.514Z,83.24
2023-03-22T07:31:18.957Z,83.27
2023-03-22T07:33:52.530Z,82.78
2023-03-22T07:36:25.730Z,82.04
2023-03-22T07:38:57.548Z,82.53
2023-03-22T07:41:30.556Z,82.73
2023-03-22T07:44:15.277Z,82.85
2023-03-22T07:46:51.662Z,82.83
2023-03-22T07:49:24.771Z,82.46
2023-03-22T07:51:56.575Z,81.69
2023-03-22T07:54:33.880Z,82.30
2023-03-22T07:57:06.737Z,81.59
2023-03-22T07:59:40.199Z,82.00
2023-03-22T08:02:12.537Z,82.71
2023-03-22T08:04:46.292Z,81.10
2023-03-22T08:07:18.970Z,80.56
2023-03-22T08:09:50.774Z,80.40
2023-03-22T08:12:23.033Z,81.29
2023-03-22T08:14:54.804Z,80.22
2023-03-22T08:17:26.936Z,78.59
2023-03-22T08:20:00.524Z,78.29
2023-03-22T08:22:34.099Z,78.47
2023-03-22T08:25:09.186Z,78.04
2023-03-22T08:27:41.047Z,77.81
2023-03-22T08:30:13.165Z,77.25
2023-03-22T08:32:44.896Z,77.67
2023-03-22T08:35:18.944Z,77.28
2023-03-22T08:37:53.918Z,78.08
2023-03-22T08:40:27.333Z,78.06
2023-03-22T08:42:59.490Z,76.52
2023-03-22T08:45:31.576Z,77.69
2023-03-22T08:48:05.011Z,76.80
2023-03-22T08:50:39.693Z,75.74
2023-03-22T08:53:13.761Z,75.98
2023-03-22T08:55:47.418Z,75.54
2023-03-22T08:58:20.788Z,76.75
2023-03-22T09:00:53.053Z,75.43
2023-03-22T09:03:26.679Z,74.98
2023-03-22T09:05:59.988Z,74.16
2023-03-22T09:08:31.812Z,74.33
2023-03-22T09:11:03.698Z,74.92
2023-03-22T09:13:35.772Z,74.72
2023-03-22T09:16:09.033Z,76.04
2023-03-22T09:18:42.155Z,74.73
2023-03-22T09:21:15.905Z,75.15
2023-03-22T09:23:48.175Z,74.58
2023-03-22T09:26:20.181Z,75.83
2023-03-22T09:28:52.162Z,74.86
2023-03-22T09:31:24.173Z,73.97
2023-03-22T09:33:57.478Z,72.09
2023-03-22T09:36:32.257Z,72.44
2023-03-22T09:39:07.221Z,72.74
2023-03-22T09:41:47.264Z,71.79
2023-03-22T09:44:28.338Z,72.09
2023-03-22T09:47:05.278Z,71.76
2023-03-22T09:49:53.383Z,70.58
2023-03-22T09:52:27.356Z,68.38
2023-03-22T09:54:59.947Z,68.73
2023-03-22T09:57:37.823Z,68.03
2023-03-22T10:00:23.670Z,68.43
2023-03-22T10:03:08.885Z,67.37
2023-03-22T10:05:51.054Z,68.38
2023-03-22T10:08:45.394Z,68.43
2023-03-22T10:11:24.719Z,68.87
2023-03-22T10:14:07.189Z,68.35
2023-03-22T10:16:40.917Z,67.34
2023-03-22T10:19:27.324Z,66.97
2023-03-22T10:22:03.882Z,68.13
2023-03-22T10:24:40.324Z,67.28
2023-03-22T10:27:21.457Z,67.38
2023-03-22T10:30:00.870Z,65.88
2023-03-22T10:32:56.765Z,65.62
2023-03-22T10:35:30.509Z,65.52
2023-03-22T10:38:10.500Z,66.18
2023-03-22T10:40:44.514Z,65.30
2023-03-22T10:43:26.428Z,65.88
2023-03-22T10:46:01.583Z,64.98
2023-03-22T10:48:40.459Z,64.77
2023-03-22T10:51:21.798Z,64.09
2023-03-22T10:53:58.171Z,64.03
2023-03-22T10:56:31.552Z,64.02
2023-03-22T10:59:03.365Z,63.15
2023-03-22T11:01:38.983Z,64.43
2023-03-22T11:04:15.232Z,63.95
2023-03-22T11:06:56.452Z,64.34
2023-03-22T11:09:28.789Z,62.73
2023-03-22T11:12:04.316Z,63.29
2023-03-22T11:14:43.420Z,65.60
2023-03-22T11:17:23.563Z,62.71
2023-03-22T11:19:59.718Z,63.68
2023-03-22T11:22:38.783Z,62.90
2023-03-22T11:25:17.828Z,64.91
2023-03-22T11:28:07.719Z,64.80
2023-03-22T11:30:42.487Z,63.73
2023-03-22T11:33:25.016Z,63.58
2023-03-22T11:36:00.819Z,62.78
2023-03-22T11:38:44.217Z,62.33
2023-03-22T11:41:26.079Z,61.99
2023-03-22T11:44:03.469Z,61.22
2023-03-22T11:46:37.512Z,61.60
2023-03-22T11:49:18.405Z,61.30
2023-03-22T11:51:50.225Z,61.94
2023-03-22T11:54:31.820Z,60.68
2023-03-22T11:57:11.828Z,59.97
2023-03-22T11:59:51.270Z,59.75
2023-03-22T12:02:27.848Z,60.29
2023-03-22T12:05:07.089Z,59.87
2023-03-22T12:07:42.093Z,58.34
2023-03-22T12:10:26.366Z,58.72
2023-03-22T12:13:04.625Z,59.85
2023-03-22T12:15:48.239Z,59.48
2023-03-22T12:18:27.794Z,59.97
2023-03-22T12:21:02.538Z,60.30
2023-03-22T12:23:36.625Z,60.04
2023-03-22T12:26:16.014Z,60.26
2023-03-22T12:28:57.601Z,57.87
2023-03-22T12:31:38.299Z,59.29
2023-03-22T12:34:18.385Z,57.74
2023-03-22T12:36:55.530Z,57.35
2023-03-22T12:39:35.673Z,56.29
2023-03-22T12:42:19.285Z,57.40
2023-03-22T12:45:04.181Z,54.22
2023-03-22T12:47:47.737Z,55.59
2023-03-22T12:50:27.231Z,54.17
2023-03-22T12:53:02.365Z,54.80
2023-03-22T12:55:38.458Z,54.25
2023-03-22T12:58:13.971Z,54.71
2023-03-22T13:00:51.700Z,54.77
2023-03-22T13:03:38.233Z,55.29
2023-03-22T13:06:33.223Z,53.91
2023-03-22T13:09:20.911Z,55.00
2023-03-22T13:12:32.809Z,54.30
2023-03-22T13:15:40.416Z,55.63
2023-03-22T13:21:17.484Z,54.87
2023-03-22T13:24:00.568Z,54.99
2023-03-22T13:26:40.807Z,55.10
2023-03-22T13:29:18.563Z,53.61
2023-03-22T13:31:58.289Z,53.59
2023-03-22T13:34:39.395Z,54.09
2023-03-22T13:37:30.202Z,53.50
2023-03-22T13:40:02.164Z,55.02
2023-03-22T13:42:37.772Z,54.16
2023-03-22T13:45:11.006Z,55.14
2023-03-22T13:47:46.712Z,55.02
2023-03-22T13:50:22.455Z,54.17
2023-03-22T13:53:03.793Z,54.59
2023-03-22T13:56:05.116Z,54.69
2023-03-22T13:58:51.259Z,54.63
2023-03-22T14:01:30.411Z,57.81
2023-03-22T14:04:03.370Z,58.15
2023-03-22T14:06:36.522Z,58.91
2023-03-22T14:09:21.641Z,59.38
2023-03-22T14:11:57.348Z,59.69
2023-03-22T14:14:30.828Z,59.33
2023-03-22T14:17:05.854Z,60.69
2023-03-22T14:19:37.616Z,61.54
